createdAt,value
2023-02-12T00:01:35.829Z,92.78
2023-02-12T00:04:02.394Z,92.62
2023-02-12T00:06:28.992Z,92.97
2023-02-12T00:08:57.146Z,92.96
2023-02-12T00:11:26.569Z,92.82
2023-02-12T00:13:53.839Z,92.83
2023-02-12T00:16:23.958Z,92.77
2023-02-12T00:18:55.116Z,92.80
2023-02-12T00:21:22.441Z,92.58
2023-02-12T00:23:49.263Z,93.15
2023-02-12T00:26:18.523Z,92.31
2023-02-12T00:28:45.015Z,92.36
2023-02-12T00:31:14.349Z,92.88
2023-02-12T00:33:41.662Z,92.84
2023-02-12T00:36:09.820Z,93.11
2023-02-12T00:38:36.306Z,92.81
2023-02-12T00:41:02.840Z,92.92
2023-02-12T00:43:29.360Z,93.19
2023-02-12T00:45:56.086Z,93.43
2023-02-12T00:48:22.793Z,92.83
2023-02-12T00:50:52.240Z,92.87
2023-02-12T00:53:19.607Z,93.28
2023-02-12T00:55:46.128Z,93.23
2023-02-12T00:58:12.814Z,93.08
2023-02-12T01:00:39.340Z,92.69
2023-02-12T01:03:05.807Z,92.42
2023-02-12T01:05:33.005Z,92.75
2023-02-12T01:07:59.660Z,93.10
2023-02-12T01:10:26.640Z,92.99
2023-02-12T01:12:53.082Z,93.01
2023-02-12T01:15:19.946Z,93.68
2023-02-12T01:17:46.896Z,93.16
2023-02-12T01:20:17.624Z,93.17
2023-02-12T01:22:44.528Z,93.40
2023-02-12T01:25:11.607Z,92.64
2023-02-12T01:27:38.069Z,93.08
2023-02-12T01:30:06.116Z,92.65
2023-02-12T01:32:32.573Z,93.78
2023-02-12T01:34:59.002Z,93.25
2023-02-12T01:37:25.526Z,93.34
2023-02-12T01:39:51.974Z,93.44
2023-02-12T01:42:19.010Z,93.48
2023-02-12T01:45:06.262Z,93.89
2023-02-12T01:47:32.697Z,93.94
2023-02-12T01:49:59.211Z,93.95
2023-02-12T01:52:30.685Z,93.95
2023-02-12T01:55:00.693Z,93.40
2023-02-12T01:57:30.006Z,93.48
2023-02-12T02:00:00.238Z,93.75
2023-02-12T02:02:27.510Z,93.80
2023-02-12T02:05:02.119Z,93.88
2023-02-12T02:07:29.065Z,93.35
2023-02-12T02:09:56.916Z,93.48
2023-02-12T02:12:44.020Z,94.02
2023-02-12T02:15:10.826Z,93.53
2023-02-12T02:18:02.046Z,93.71
2023-02-12T02:20:32.833Z,94.24
2023-02-12T02:23:34.873Z,93.70
2023-02-12T02:26:29.702Z,94.23
2023-02-12T02:29:20.137Z,94.00
2023-02-12T02:32:02.965Z,94.23
2023-02-12T02:34:45.637Z,93.99
2023-02-12T02:37:27.037Z,94.30
2023-02-12T02:40:16.847Z,94.17
2023-02-12T02:42:55.888Z,94.83
2023-02-12T02:45:31.831Z,94.73
2023-02-12T02:48:02.452Z,94.86
2023-02-12T02:50:32.440Z,94.56
2023-02-12T02:53:10.051Z,94.69
2023-02-12T02:55:41.341Z,94.79
2023-02-12T02:58:14.114Z,94.47
2023-02-12T03:00:48.840Z,94.89
2023-02-12T03:03:45.034Z,94.93
2023-02-12T03:06:20.582Z,95.02
2023-02-12T03:08:57.126Z,94.82
2023-02-12T03:11:27.606Z,94.66
2023-02-12T03:14:15.832Z,94.72
2023-02-12T03:17:05.006Z,94.79
2023-02-12T03:19:55.060Z,95.01
2023-02-12T03:22:28.093Z,95.19
2023-02-12T03:25:00.944Z,95.13
2023-02-12T03:27:33.975Z,95.16
2023-02-12T03:30:03.581Z,94.92
2023-02-12T03:32:39.107Z,94.83
2023-02-12T03:35:34.875Z,94.63
2023-02-12T03:38:05.785Z,95.02
2023-02-12T03:40:39.297Z,94.79
2023-02-12T03:43:25.002Z,95.11
2023-02-12T03:46:14.525Z,95.16
2023-02-12T03:49:03.364Z,95.36
2023-02-12T03:51:37.641Z,95.44
2023-02-12T03:54:06.874Z,95.58
2023-02-12T03:56:57.211Z,95.53
2023-02-12T03:59:25.131Z,95.21
2023-02-12T04:01:53.945Z,95.15
2023-02-12T04:04:20.999Z,95.23
2023-02-12T04:06:50.369Z,95.41
2023-02-12T04:09:17.533Z,95.59
2023-02-12T04:11:50.086Z,95.59
2023-02-12T04:14:27.161Z,95.95
2023-02-12T04:17:03.037Z,95.56
2023-02-12T04:19:38.570Z,95.53
2023-02-12T04:22:17.242Z,95.94
2023-02-12T04:24:55.850Z,95.51
2023-02-12T04:27:42.499Z,95.44
2023-02-12T04:30:34.080Z,95.61
2023-02-12T04:33:04.137Z,96.07
2023-02-12T04:35:55.187Z,95.64
2023-02-12T04:38:27.025Z,96.19
2023-02-12T04:40:53.697Z,95.68
2023-02-12T04:43:31.131Z,95.75
2023-02-12T04:45:57.807Z,95.69
2023-02-12T04:48:24.505Z,96.32
2023-02-12T04:50:50.921Z,96.31
2023-02-12T04:53:17.458Z,96.39
2023-02-12T04:55:44.219Z,96.06
2023-02-12T04:58:10.627Z,96.03
2023-02-12T05:00:37.689Z,95.95
2023-02-12T05:03:04.606Z,95.96
2023-02-12T05:05:31.096Z,95.92
2023-02-12T05:07:57.509Z,96.16
2023-02-12T05:10:24.001Z,96.17
2023-02-12T05:12:54.216Z,96.02
2023-02-12T05:15:21.196Z,96.13
2023-02-12T05:17:47.685Z,95.96
2023-02-12T05:20:14.637Z,95.77
2023-02-12T05:22:41.626Z,96.06
2023-02-12T05:25:08.159Z,95.70
2023-02-12T05:27:34.605Z,96.00
2023-02-12T05:30:01.116Z,96.02
2023-02-12T05:32:27.505Z,95.72
2023-02-12T05:34:54.088Z,95.71
2023-02-12T05:37:20.478Z,95.68
2023-02-12T05:39:49.378Z,95.70
2023-02-12T05:42:15.809Z,95.92
2023-02-12T05:44:42.218Z,95.75
2023-02-12T05:47:08.648Z,95.67
2023-02-12T05:49:35.206Z,95.91
2023-02-12T05:52:01.652Z,95.28
2023-02-12T05:54:28.063Z,95.72
2023-02-12T05:56:54.585Z,95.58
2023-02-12T05:59:23.088Z,95.64
2023-02-12T06:01:51.492Z,95.22
2023-02-12T06:04:28.773Z,95.43
2023-02-12T06:06:56.252Z,95.25
2023-02-12T06:09:23.703Z,94.87
2023-02-12T06:11:50.182Z,94.89
2023-02-12T06:14:19.064Z,95.30
2023-02-12T06:16:47.877Z,95.31
2023-02-12T06:19:14.990Z,95.25
2023-02-12T06:21:41.732Z,95.12
2023-02-12T06:24:08.325Z,94.79
2023-02-12T06:26:34.918Z,94.71
2023-02-12T06:29:01.944Z,94.71
2023-02-12T06:31:30.434Z,94.79
2023-02-12T06:34:03.136Z,95.14
2023-02-12T06:36:29.703Z,95.39
2023-02-12T06:38:56.200Z,95.03
2023-02-12T06:41:23.691Z,94.82
2023-02-12T06:43:50.453Z,95.14
2023-02-12T06:46:17.101Z,94.38
2023-02-12T06:48:43.685Z,94.57
2023-02-12T06:51:13.407Z,94.86
2023-02-12T06:53:40.403Z,95.06
2023-02-12T06:56:11.455Z,94.29
2023-02-12T06:58:39.472Z,94.19
2023-02-12T07:01:27.076Z,94.34
2023-02-12T07:03:59.710Z,94.62
2023-02-12T07:06:27.670Z,94.68
2023-02-12T07:08:55.185Z,94.52
2023-02-12T07:11:25.969Z,94.15
2023-02-12T07:13:53.012Z,93.97
2023-02-12T07:16:19.553Z,94.14
2023-02-12T07:18:46.096Z,94.16
2023-02-12T07:21:14.600Z,94.24
2023-02-12T07:23:41.831Z,93.94
2023-02-12T07:26:12.157Z,94.10
2023-02-12T07:28:39.367Z,93.73
2023-02-12T07:31:14.088Z,93.93
2023-02-12T07:33:42.113Z,93.59
2023-02-12T07:36:13.376Z,93.77
2023-02-12T07:38:40.552Z,93.22
2023-02-12T07:41:12.283Z,93.57
2023-02-12T07:43:43.685Z,93.30
2023-02-12T07:46:16.806Z,93.36
2023-02-12T07:48:44.586Z,93.58
2023-02-12T07:51:14.382Z,93.58
2023-02-12T07:53:41.094Z,93.07
2023-02-12T07:56:13.314Z,93.51
2023-02-12T07:58:41.536Z,93.41
2023-02-12T08:01:18.091Z,93.03
2023-02-12T08:03:45.755Z,92.83
2023-02-12T08:06:18.006Z,93.21
2023-02-12T08:08:45.540Z,93.62
2023-02-12T08:11:13.878Z,92.49
2023-02-12T08:13:40.875Z,92.63
2023-02-12T08:16:11.049Z,92.81
2023-02-12T08:18:37.499Z,92.52
2023-02-12T08:21:08.428Z,92.77
2023-02-12T08:23:35.943Z,92.84
2023-02-12T08:26:09.378Z,92.36
2023-02-12T08:28:37.714Z,92.54
2023-02-12T08:31:06.727Z,92.72
2023-02-12T08:33:33.272Z,92.05
2023-02-12T08:36:11.557Z,92.19
2023-02-12T08:38:39.301Z,92.39
2023-02-12T08:41:09.357Z,92.23
2023-02-12T08:43:36.532Z,91.69
2023-02-12T08:46:08.540Z,92.18
2023-02-12T08:48:35.490Z,91.36
2023-02-12T08:51:10.525Z,91.86
2023-02-12T08:53:38.682Z,92.15
2023-02-12T08:56:06.255Z,91.32
2023-02-12T08:58:33.655Z,91.71
2023-02-12T09:01:00.195Z,91.83
2023-02-12T09:03:26.690Z,91.33
2023-02-12T09:05:53.353Z,91.71
2023-02-12T09:08:20.013Z,90.68
2023-02-12T09:10:46.712Z,91.39
2023-02-12T09:13:15.221Z,91.24
2023-02-12T09:15:45.017Z,90.24
2023-02-12T09:18:14.536Z,90.53
2023-02-12T09:20:44.081Z,90.13
2023-02-12T09:23:13.082Z,90.53
2023-02-12T09:25:44.823Z,89.96
2023-02-12T09:28:13.799Z,90.96
2023-02-12T09:30:40.874Z,90.91
2023-02-12T09:33:10.607Z,90.10
2023-02-12T09:35:39.289Z,90.37
2023-02-12T09:38:06.904Z,90.29
2023-02-12T09:40:47.756Z,89.93
2023-02-12T09:43:33.374Z,90.37
2023-02-12T09:46:16.489Z,90.23
2023-02-12T09:48:54.705Z,90.39
2023-02-12T09:51:22.025Z,90.12
2023-02-12T09:54:02.093Z,89.95
2023-02-12T09:56:28.732Z,90.32
2023-02-12T09:59:04.779Z,89.60
2023-02-12T10:01:31.313Z,89.88
2023-02-12T10:03:58.305Z,89.92
2023-02-12T10:06:33.556Z,89.65
2023-02-12T10:09:31.492Z,89.52
2023-02-12T10:12:03.698Z,89.62
2023-02-12T10:14:30.056Z,89.09
2023-02-12T10:17:16.807Z,89.24
2023-02-12T10:20:07.531Z,89.37
2023-02-12T10:22:56.128Z,89.38
2023-02-12T10:25:36.093Z,89.25
2023-02-12T10:28:11.309Z,88.94
2023-02-12T10:31:00.985Z,88.45
2023-02-12T10:33:35.530Z,88.82
2023-02-12T10:36:26.402Z,88.72
2023-02-12T10:38:58.922Z,88.46
2023-02-12T10:41:28.436Z,88.78
2023-02-12T10:43:54.908Z,88.40
2023-02-12T10:46:21.478Z,88.17
2023-02-12T10:48:58.888Z,88.81
2023-02-12T10:52:13.588Z,87.87
2023-02-12T10:54:46.237Z,87.55
2023-02-12T10:57:25.188Z,87.24
2023-02-12T10:59:54.880Z,87.10
2023-02-12T11:02:33.066Z,86.87
2023-02-12T11:05:02.207Z,86.78
2023-02-12T11:07:47.443Z,86.46
2023-02-12T11:10:22.394Z,86.63
2023-02-12T11:12:49.313Z,86.66
2023-02-12T11:15:19.414Z,86.26
2023-02-12T11:17:57.111Z,85.95
2023-02-12T11:20:39.019Z,86.29
2023-02-12T11:23:22.671Z,86.57
2023-02-12T11:26:17.636Z,86.31
2023-02-12T11:28:58.071Z,85.84
2023-02-12T11:31:28.919Z,86.09
2023-02-12T11:34:04.595Z,85.92
2023-02-12T11:36:35.283Z,85.74
2023-02-12T11:39:02.812Z,85.37
2023-02-12T11:41:39.807Z,85.35
2023-02-12T11:44:19.677Z,85.69
2023-02-12T11:46:53.371Z,84.82
2023-02-12T11:49:25.467Z,85.15
2023-02-12T11:51:53.050Z,84.46
2023-02-12T11:54:27.240Z,84.37
2023-02-12T11:56:55.709Z,83.45
2023-02-12T11:59:39.715Z,84.14
2023-02-12T12:02:23.592Z,83.90
2023-02-12T12:04:55.202Z,84.06
2023-02-12T12:07:31.391Z,83.21
2023-02-12T12:10:07.501Z,83.27
2023-02-12T12:12:51.688Z,82.62
2023-02-12T12:15:49.564Z,82.18
2023-02-12T12:18:48.703Z,82.63
2023-02-12T12:21:50.598Z,82.59
2023-02-12T12:24:28.664Z,82.44
2023-02-12T12:27:24.490Z,82.31
2023-02-12T12:30:06.738Z,81.56
2023-02-12T12:32:37.794Z,81.92
2023-02-12T12:35:05.540Z,81.70
2023-02-12T12:38:01.979Z,82.53
2023-02-12T12:40:47.696Z,81.53
2023-02-12T12:43:42.293Z,80.59
2023-02-12T12:46:26.992Z,80.51
2023-02-12T12:48:59.668Z,80.63
2023-02-12T12:52:12.195Z,80.55
2023-02-12T12:55:05.149Z,81.18
2023-02-12T12:57:54.647Z,79.77
2023-02-12T13:00:42.189Z,80.14
2023-02-12T13:03:42.266Z,80.63
2023-02-12T13:06:30.136Z,80.27
2023-02-12T13:09:02.363Z,80.33
2023-02-12T13:11:46.990Z,80.42
2023-02-12T13:14:33.764Z,80.32
2023-02-12T13:17:27.280Z,79.87
2023-02-12T13:20:17.318Z,79.30
2023-02-12T13:23:13.962Z,79.49
2023-02-12T13:25:44.267Z,80.37
2023-02-12T13:28:33.841Z,79.75
2023-02-12T13:31:09.499Z,80.00
2023-02-12T13:33:47.016Z,79.16
2023-02-12T13:36:14.774Z,79.68
2023-02-12T13:38:58.431Z,79.46
2023-02-12T13:41:25.480Z,79.46
2023-02-12T13:44:14.761Z,79.27
2023-02-12T13:47:08.915Z,78.97
2023-02-12T13:49:47.327Z,78.91
2023-02-12T13:52:19.563Z,78.65
2023-02-12T13:54:49.176Z,78.69
2023-02-12T13:57:18.251Z,79.29
2023-02-12T13:59:47.339Z,79.58
2023-02-12T14:02:38.510Z,79.12
2023-02-12T14:05:18.735Z,78.98
2023-02-12T14:07:49.086Z,79.05
2023-02-12T14:10:40.877Z,78.78
2023-02-12T14:13:12.970Z,78.52
2023-02-12T14:15:44.485Z,78.23
2023-02-12T14:18:26.374Z,79.25
2023-02-12T14:21:11.268Z,78.17
2023-02-12T14:23:40.253Z,78.42
2023-02-12T14:26:11.585Z,78.22
2023-02-12T14:28:44.980Z,78.06
2023-02-12T14:31:17.603Z,78.21
2023-02-12T14:34:05.260Z,77.59
2023-02-12T14:36:32.180Z,77.96
2023-02-12T14:39:01.549Z,77.32
2023-02-12T14:41:34.234Z,78.39
2023-02-12T14:44:27.287Z,78.39
2023-02-12T14:46:59.829Z,78.02
2023-02-12T14:49:48.464Z,77.63
2023-02-12T14:52:17.054Z,77.96
2023-02-12T14:54:43.492Z,77.42
2023-02-12T14:57:18.546Z,77.38
2023-02-12T14:59:46.258Z,77.44
2023-02-12T15:02:25.271Z,77.85
2023-02-12T15:04:53.518Z,77.34
2023-02-12T15:07:36.934Z,77.47
2023-02-12T15:10:15.347Z,77.08
2023-02-12T15:13:03.999Z,77.29
2023-02-12T15:15:40.089Z,76.77
2023-02-12T15:18:19.789Z,76.82
2023-02-12T15:20:54.792Z,77.32
2023-02-12T15:23:39.375Z,77.58
2023-02-12T15:26:12.267Z,77.40
2023-02-12T15:28:40.103Z,77.57
2023-02-12T15:31:10.595Z,76.87
2023-02-12T15:33:44.960Z,77.08
2023-02-12T15:36:18.629Z,76.42
2023-02-12T15:38:50.945Z,76.80
2023-02-12T15:41:32.365Z,76.80
2023-02-12T15:44:00.714Z,76.87
2023-02-12T15:46:27.882Z,76.58
2023-02-12T15:48:55.690Z,77.25
2023-02-12T15:51:34.113Z,77.06
2023-02-12T15:54:05.790Z,77.30
2023-02-12T15:56:35.061Z,77.65
2023-02-12T15:59:02.472Z,76.83
2023-02-12T16:01:32.293Z,77.33
2023-02-12T16:04:02.023Z,76.68
2023-02-12T16:06:32.149Z,77.48
2023-02-12T16:09:03.803Z,77.06
2023-02-12T16:11:31.393Z,76.79
2023-02-12T16:14:01.685Z,77.36
2023-02-12T16:16:38.793Z,77.83
2023-02-12T16:19:06.548Z,77.28
2023-02-12T16:21:36.231Z,77.11
2023-02-12T16:24:03.890Z,77.28
2023-02-12T16:26:30.412Z,77.25
2023-02-12T16:28:57.878Z,77.92
2023-02-12T16:31:27.031Z,77.22
2023-02-12T16:33:57.685Z,77.21
2023-02-12T16:36:24.093Z,77.81
2023-02-12T16:39:04.991Z,77.59
2023-02-12T16:41:33.096Z,78.21
2023-02-12T16:43:59.461Z,78.86
2023-02-12T16:46:27.390Z,77.99
2023-02-12T16:48:55.927Z,78.51
2023-02-12T16:51:25.668Z,78.23
2023-02-12T16:53:53.850Z,78.32
2023-02-12T16:56:22.350Z,78.55
2023-02-12T16:58:55.169Z,79.26
2023-02-12T17:01:30.205Z,78.45
2023-02-12T17:03:58.336Z,78.16
2023-02-12T17:06:27.978Z,79.20
2023-02-12T17:08:54.582Z,79.22
2023-02-12T17:11:23.275Z,78.56
2023-02-12T17:13:52.609Z,78.91
2023-02-12T17:16:30.370Z,78.26
2023-02-12T17:18:59.055Z,78.64
2023-02-12T17:21:43.306Z,78.78
2023-02-12T17:24:17.873Z,79.51
2023-02-12T17:26:44.466Z,78.72
2023-02-12T17:29:11.230Z,79.02
2023-02-12T17:31:38.137Z,78.84
2023-02-12T17:34:05.148Z,78.81
2023-02-12T17:36:31.767Z,79.40
2023-02-12T17:38:58.444Z,78.90
2023-02-12T17:41:24.933Z,79.14
2023-02-12T17:43:51.409Z,78.88
2023-02-12T17:46:23.178Z,79.39
2023-02-12T17:48:49.671Z,79.63
2023-02-12T17:51:16.642Z,79.42
2023-02-12T17:53:43.488Z,79.21
2023-02-12T17:56:15.783Z,79.97
2023-02-12T17:58:42.798Z,79.99
2023-02-12T18:01:12.482Z,80.06
2023-02-12T18:03:39.380Z,80.17
2023-02-12T18:06:06.998Z,79.92
2023-02-12T18:08:33.967Z,79.93
2023-02-12T18:11:05.359Z,80.42
2023-02-12T18:13:31.870Z,80.89
2023-02-12T18:15:58.470Z,80.41
2023-02-12T18:18:25.065Z,81.11
2023-02-12T18:20:51.506Z,80.48
2023-02-12T18:23:18.217Z,80.65
2023-02-12T18:25:45.173Z,80.82
2023-02-12T18:28:12.150Z,81.09
2023-02-12T18:30:42.747Z,80.60
2023-02-12T18:33:10.251Z,80.57
2023-02-12T18:35:41.697Z,81.15
2023-02-12T18:38:08.176Z,81.92
2023-02-12T18:40:34.608Z,81.19
2023-02-12T18:43:01.141Z,81.29
2023-02-12T18:45:27.583Z,81.69
2023-02-12T18:47:53.988Z,82.01
2023-02-12T18:50:20.673Z,81.60
2023-02-12T18:52:47.070Z,81.70
2023-02-12T18:55:13.527Z,81.62
2023-02-12T18:57:39.946Z,81.75
2023-02-12T19:00:07.231Z,81.82
2023-02-12T19:02:33.658Z,82.70
2023-02-12T19:05:00.124Z,82.00
2023-02-12T19:07:27.486Z,82.34
2023-02-12T19:09:54.083Z,81.92
2023-02-12T19:12:20.567Z,82.17
2023-02-12T19:14:47.129Z,83.05
2023-02-12T19:17:13.612Z,82.88
2023-02-12T19:19:40.085Z,82.58
2023-02-12T19:22:06.669Z,81.96
2023-02-12T19:24:45.845Z,81.90
2023-02-12T19:27:13.197Z,82.06
2023-02-12T19:29:39.588Z,82.26
2023-02-12T19:32:06.189Z,82.21
2023-02-12T19:34:32.732Z,82.31
2023-02-12T19:36:59.267Z,82.69
2023-02-12T19:39:25.890Z,81.93
2023-02-12T19:41:52.327Z,82.18
2023-02-12T19:44:21.773Z,82.20
2023-02-12T19:46:49.250Z,82.44
2023-02-12T19:49:25.370Z,82.31
2023-02-12T19:51:52.300Z,82.76
2023-02-12T19:54:20.461Z,81.79
2023-02-12T19:56:47.121Z,82.26
2023-02-12T19:59:17.324Z,82.28
2023-02-12T20:01:45.005Z,82.25
2023-02-12T20:04:18.171Z,82.39
2023-02-12T20:06:50.810Z,82.72
2023-02-12T20:09:18.652Z,83.06
2023-02-12T20:11:45.117Z,82.83
2023-02-12T20:14:13.861Z,83.19
2023-02-12T20:16:43.703Z,82.47
2023-02-12T20:19:12.858Z,83.02
2023-02-12T20:21:40.429Z,83.52
2023-02-12T20:24:07.252Z,83.12
2023-02-12T20:26:34.472Z,82.36
2023-02-12T20:29:04.909Z,81.96
2023-02-12T20:31:33.835Z,82.17
2023-02-12T20:34:03.449Z,82.17
2023-02-12T20:36:32.295Z,82.86
2023-02-12T20:38:59.163Z,82.41
2023-02-12T20:41:27.134Z,82.42
2023-02-12T20:43:54.677Z,82.73
2023-02-12T20:46:22.929Z,82.41
2023-02-12T20:48:49.971Z,82.49
2023-02-12T20:51:21.675Z,83.27
2023-02-12T20:53:49.409Z,82.87
2023-02-12T20:56:18.867Z,82.71
2023-02-12T20:58:46.052Z,82.54
2023-02-12T21:01:19.011Z,82.79
2023-02-12T21:03:45.529Z,82.82
2023-02-12T21:06:13.298Z,83.09
2023-02-12T21:08:41.348Z,82.47
2023-02-12T21:11:18.309Z,83.52
2023-02-12T21:13:58.506Z,83.05
2023-02-12T21:16:32.053Z,83.45
2023-02-12T21:18:58.712Z,83.74
2023-02-12T21:21:29.056Z,83.95
2023-02-12T21:23:57.622Z,83.75
2023-02-12T21:26:26.150Z,82.95
2023-02-12T21:28:53.570Z,83.52
2023-02-12T21:31:26.129Z,83.55
2023-02-12T21:33:54.528Z,83.33
2023-02-12T21:36:24.024Z,83.19
2023-02-12T21:38:51.718Z,83.14
2023-02-12T21:41:26.690Z,83.88
2023-02-12T21:44:00.267Z,83.54
2023-02-12T21:46:28.494Z,83.11
2023-02-12T21:48:55.363Z,83.88
2023-02-12T21:51:30.922Z,84.19
2023-02-12T21:54:00.308Z,84.22
2023-02-12T21:56:27.397Z,84.14
2023-02-12T21:58:54.296Z,83.79
2023-02-12T22:01:22.898Z,84.63
2023-02-12T22:03:50.729Z,84.31
2023-02-12T22:06:19.144Z,84.23
2023-02-12T22:08:46.656Z,84.27
2023-02-12T22:11:13.976Z,83.92
2023-02-12T22:13:41.321Z,84.36
2023-02-12T22:16:21.597Z,84.68
2023-02-12T22:18:51.088Z,84.48
2023-02-12T22:21:17.701Z,84.28
2023-02-12T22:23:45.052Z,84.57
2023-02-12T22:26:20.949Z,85.51
2023-02-12T22:28:51.106Z,85.11
2023-02-12T22:31:21.880Z,84.66
2023-02-12T22:33:50.777Z,84.85
2023-02-12T22:36:25.004Z,84.55
2023-02-12T22:38:53.592Z,84.39
2023-02-12T22:41:20.391Z,84.91
2023-02-12T22:43:47.062Z,84.81
2023-02-12T22:46:14.690Z,84.50
2023-02-12T22:48:41.892Z,84.25
2023-02-12T22:51:19.409Z,84.78
2023-02-12T22:53:46.128Z,84.60
2023-02-12T22:56:12.742Z,84.52
2023-02-12T22:58:39.546Z,84.28
2023-02-12T23:01:11.784Z,84.13
2023-02-12T23:03:38.425Z,84.71
2023-02-12T23:06:13.167Z,84.71
2023-02-12T23:08:39.990Z,84.71
2023-02-12T23:11:08.522Z,85.08
2023-02-12T23:13:36.302Z,84.90
2023-02-12T23:16:03.657Z,84.94
2023-02-12T23:18:30.195Z,84.99
2023-02-12T23:20:56.966Z,84.49
2023-02-12T23:23:23.600Z,85.12
2023-02-12T23:25:50.399Z,85.38
2023-02-12T23:28:17.320Z,85.12
2023-02-12T23:30:43.889Z,85.06
2023-02-12T23:33:10.618Z,85.41
2023-02-12T23:35:37.026Z,84.84
2023-02-12T23:38:04.490Z,85.55
2023-02-12T23:40:34.636Z,85.49
2023-02-12T23:43:01.204Z,85.49
2023-02-12T23:45:28.778Z,85.00
2023-02-12T23:47:55.369Z,85.90
2023-02-12T23:50:22.579Z,85.51
2023-02-12T23:52:49.377Z,85.18
2023-02-12T23:55:16.669Z,85.36
2023-02-12T23:57:43.113Z,85.17
